sensor_id;sensor_type;location;lat;lon;timestamp;P1;durP1;ratioP1;P2;durP2;ratioP2
7051;SDS011;3567;52.444;13.556;2023-03-20T00:00:43;4.80;;;4.07;;
7051;SDS011;3567;52.444;13.556;2023-03-20T00:03:11;5.53;;;4.55;;
7051;SDS011;3567;52.444;13.556;2023-03-20T00:05:37;5.55;;;4.30;;
7051;SDS011;3567;52.444;13.556;2023-03-20T00:08:03;4.63;;;4.15;;
7051;SDS011;3567;52.444;13.556;2023-03-20T00:10:31;6.85;;;4.15;;
7051;SDS011;3567;52.444;13.556;2023-03-20T00:13:00;4.82;;;4.32;;
7051;SDS011;3567;52.444;13.556;2023-03-20T00:15:34;6.00;;;4.13;;
7051;SDS011;3567;52.444;13.556;2023-03-20T00:18:02;4.75;;;3.55;;
7051;SDS011;3567;52.444;13.556;2023-03-20T00:20:36;6.20;;;4.25;;
7051;SDS011;3567;52.444;13.556;2023-03-20T00:23:01;6.53;;;3.72;;
7051;SDS011;3567;52.444;13.556;2023-03-20T00:25:28;7.80;;;4.55;;
7051;SDS011;3567;52.444;13.556;2023-03-20T00:27:53;5.25;;;3.90;;
7051;SDS011;3567;52.444;13.556;2023-03-20T00:32:46;4.93;;;4.35;;
7051;SDS011;3567;52.444;13.556;2023-03-20T00:35:17;4.93;;;4.53;;
7051;SDS011;3567;52.444;13.556;2023-03-20T00:37:53;4.35;;;3.95;;
7051;SDS011;3567;52.444;13.556;2023-03-20T00:40:20;6.25;;;4.13;;
7051;SDS011;3567;52.444;13.556;2023-03-20T00:42:47;4.45;;;3.92;;
7051;SDS011;3567;52.444;13.556;2023-03-20T00:45:23;5.82;;;4.03;;
7051;SDS011;3567;52.444;13.556;2023-03-20T00:47:49;3.78;;;3.47;;
7051;SDS011;3567;52.444;13.556;2023-03-20T00:50:19;4.00;;;3.53;;
7051;SDS011;3567;52.444;13.556;2023-03-20T00:52:47;4.47;;;4.00;;
7051;SDS011;3567;52.444;13.556;2023-03-20T00:55:14;6.00;;;4.57;;
7051;SDS011;3567;52.444;13.556;2023-03-20T00:57:51;4.00;;;3.63;;
7051;SDS011;3567;52.444;13.556;2023-03-20T01:02:48;6.45;;;4.15;;
7051;SDS011;3567;52.444;13.556;2023-03-20T01:05:14;4.85;;;4.35;;
7051;SDS011;3567;52.444;13.556;2023-03-20T01:07:40;8.18;;;4.45;;
7051;SDS011;3567;52.444;13.556;2023-03-20T01:10:06;5.22;;;4.63;;
7051;SDS011;3567;52.444;13.556;2023-03-20T01:12:32;6.65;;;4.88;;
7051;SDS011;3567;52.444;13.556;2023-03-20T01:14:57;5.20;;;4.65;;
7051;SDS011;3567;52.444;13.556;2023-03-20T01:17:24;5.05;;;4.32;;
7051;SDS011;3567;52.444;13.556;2023-03-20T01:19:51;6.10;;;4.55;;
7051;SDS011;3567;52.444;13.556;2023-03-20T01:22:17;6.75;;;6.15;;
7051;SDS011;3567;52.444;13.556;2023-03-20T01:24:43;6.63;;;4.80;;
7051;SDS011;3567;52.444;13.556;2023-03-20T01:27:12;5.60;;;4.65;;
7051;SDS011;3567;52.444;13.556;2023-03-20T01:29:40;6.47;;;5.20;;
7051;SDS011;3567;52.444;13.556;2023-03-20T01:32:13;7.97;;;5.85;;
7051;SDS011;3567;52.444;13.556;2023-03-20T01:34:40;9.82;;;5.25;;
7051;SDS011;3567;52.444;13.556;2023-03-20T01:37:08;6.25;;;5.55;;
7051;SDS011;3567;52.444;13.556;2023-03-20T01:39:37;7.65;;;6.95;;
7051;SDS011;3567;52.444;13.556;2023-03-20T01:42:03;9.18;;;6.80;;
7051;SDS011;3567;52.444;13.556;2023-03-20T01:44:31;8.57;;;6.65;;
7051;SDS011;3567;52.444;13.556;2023-03-20T01:47:00;5.93;;;5.43;;
7051;SDS011;3567;52.444;13.556;2023-03-20T01:51:53;10.55;;;6.53;;
7051;SDS011;3567;52.444;13.556;2023-03-20T01:54:31;6.75;;;6.10;;
7051;SDS011;3567;52.444;13.556;2023-03-20T01:57:10;6.70;;;5.72;;
7051;SDS011;3567;52.444;13.556;2023-03-20T01:59:45;7.13;;;5.75;;
7051;SDS011;3567;52.444;13.556;2023-03-20T02:02:14;6.13;;;5.35;;
7051;SDS011;3567;52.444;13.556;2023-03-20T02:04:44;6.05;;;5.55;;
7051;SDS011;3567;52.444;13.556;2023-03-20T02:07:12;8.18;;;6.20;;
7051;SDS011;3567;52.444;13.556;2023-03-20T02:09:41;7.53;;;6.82;;
7051;SDS011;3567;52.444;13.556;2023-03-20T02:12:06;7.80;;;7.00;;
7051;SDS011;3567;52.444;13.556;2023-03-20T02:14:32;8.20;;;7.38;;
7051;SDS011;3567;52.444;13.556;2023-03-20T02:16:58;10.32;;;7.53;;
7051;SDS011;3567;52.444;13.556;2023-03-20T02:19:58;7.63;;;6.78;;
7051;SDS011;3567;52.444;13.556;2023-03-20T02:25:48;9.27;;;7.80;;
7051;SDS011;3567;52.444;13.556;2023-03-20T02:31:20;9.85;;;8.10;;
7051;SDS011;3567;52.444;13.556;2023-03-20T02:42:59;14.95;;;10.60;;
7051;SDS011;3567;52.444;13.556;2023-03-20T02:45:13;12.40;;;11.07;;
7051;SDS011;3567;52.444;13.556;2023-03-20T02:47:51;10.10;;;9.10;;
7051;SDS011;3567;52.444;13.556;2023-03-20T02:59:07;11.90;;;10.65;;
7051;SDS011;3567;52.444;13.556;2023-03-20T03:01:46;11.50;;;10.35;;
7051;SDS011;3567;52.444;13.556;2023-03-20T03:04:18;11.40;;;9.95;;
7051;SDS011;3567;52.444;13.556;2023-03-20T03:06:48;11.55;;;10.43;;
7051;SDS011;3567;52.444;13.556;2023-03-20T03:09:21;13.57;;;10.65;;
7051;SDS011;3567;52.444;13.556;2023-03-20T03:12:05;11.77;;;10.68;;
7051;SDS011;3567;52.444;13.556;2023-03-20T03:17:07;11.80;;;9.55;;
7051;SDS011;3567;52.444;13.556;2023-03-20T03:19:35;10.98;;;9.55;;
7051;SDS011;3567;52.444;13.556;2023-03-20T03:22:03;9.80;;;8.90;;
7051;SDS011;3567;52.444;13.556;2023-03-20T03:24:30;10.35;;;9.32;;
7051;SDS011;3567;52.444;13.556;2023-03-20T03:26:58;9.95;;;8.95;;
7051;SDS011;3567;52.444;13.556;2023-03-20T03:29:26;11.13;;;9.90;;
7051;SDS011;3567;52.444;13.556;2023-03-20T03:31:58;11.30;;;9.70;;
7051;SDS011;3567;52.444;13.556;2023-03-20T03:34:25;10.63;;;9.25;;
7051;SDS011;3567;52.444;13.556;2023-03-20T03:42:04;9.98;;;9.07;;
7051;SDS011;3567;52.444;13.556;2023-03-20T03:44:40;10.93;;;9.00;;
7051;SDS011;3567;52.444;13.556;2023-03-20T03:47:19;10.48;;;8.90;;
7051;SDS011;3567;52.444;13.556;2023-03-20T03:49:52;9.52;;;8.57;;
7051;SDS011;3567;52.444;13.556;2023-03-20T03:52:26;10.82;;;8.38;;
7051;SDS011;3567;52.444;13.556;2023-03-20T03:57:28;10.18;;;9.18;;
7051;SDS011;3567;52.444;13.556;2023-03-20T03:59:58;10.05;;;8.75;;
7051;SDS011;3567;52.444;13.556;2023-03-20T04:02:30;9.73;;;8.70;;
7051;SDS011;3567;52.444;13.556;2023-03-20T04:04:57;9.50;;;7.93;;
7051;SDS011;3567;52.444;13.556;2023-03-20T04:07:26;9.18;;;8.20;;
7051;SDS011;3567;52.444;13.556;2023-03-20T04:09:53;10.38;;;8.88;;
7051;SDS011;3567;52.444;13.556;2023-03-20T04:12:38;8.85;;;7.90;;
7051;SDS011;3567;52.444;13.556;2023-03-20T04:15:05;10.13;;;8.20;;
7051;SDS011;3567;52.444;13.556;2023-03-20T04:17:31;8.77;;;7.97;;
7051;SDS011;3567;52.444;13.556;2023-03-20T04:19:57;9.30;;;8.38;;
7051;SDS011;3567;52.444;13.556;2023-03-20T04:22:22;10.48;;;7.95;;
7051;SDS011;3567;52.444;13.556;2023-03-20T04:24:48;8.50;;;7.70;;
7051;SDS011;3567;52.444;13.556;2023-03-20T04:27:13;9.30;;;8.40;;
7051;SDS011;3567;52.444;13.556;2023-03-20T04:29:39;8.23;;;7.40;;
7051;SDS011;3567;52.444;13.556;2023-03-20T04:32:04;9.05;;;7.80;;
7051;SDS011;3567;52.444;13.556;2023-03-20T04:34:30;12.52;;;8.48;;
7051;SDS011;3567;52.444;13.556;2023-03-20T04:36:56;10.25;;;8.00;;
7051;SDS011;3567;52.444;13.556;2023-03-20T04:39:21;9.63;;;8.63;;
7051;SDS011;3567;52.444;13.556;2023-03-20T04:41:47;7.75;;;6.90;;
7051;SDS011;3567;52.444;13.556;2023-03-20T04:44:12;10.40;;;8.07;;
7051;SDS011;3567;52.444;13.556;2023-03-20T04:46:37;9.48;;;8.27;;
7051;SDS011;3567;52.444;13.556;2023-03-20T04:49:02;11.25;;;8.02;;
7051;SDS011;3567;52.444;13.556;2023-03-20T04:51:28;10.35;;;8.63;;
7051;SDS011;3567;52.444;13.556;2023-03-20T04:53:53;9.63;;;8.70;;
7051;SDS011;3567;52.444;13.556;2023-03-20T04:56:19;12.68;;;9.00;;
7051;SDS011;3567;52.444;13.556;2023-03-20T04:58:44;11.63;;;9.25;;
7051;SDS011;3567;52.444;13.556;2023-03-20T05:01:09;13.02;;;8.77;;
7051;SDS011;3567;52.444;13.556;2023-03-20T05:03:34;11.48;;;8.65;;
7051;SDS011;3567;52.444;13.556;2023-03-20T05:06:00;8.75;;;7.95;;
7051;SDS011;3567;52.444;13.556;2023-03-20T05:08:25;12.00;;;8.10;;
7051;SDS011;3567;52.444;13.556;2023-03-20T05:10:51;9.45;;;8.43;;
7051;SDS011;3567;52.444;13.556;2023-03-20T05:13:17;9.68;;;8.70;;
7051;SDS011;3567;52.444;13.556;2023-03-20T05:15:42;9.27;;;8.23;;
7051;SDS011;3567;52.444;13.556;2023-03-20T05:18:07;9.48;;;8.48;;
7051;SDS011;3567;52.444;13.556;2023-03-20T05:20:33;10.70;;;9.32;;
7051;SDS011;3567;52.444;13.556;2023-03-20T05:23:00;10.13;;;7.72;;
7051;SDS011;3567;52.444;13.556;2023-03-20T05:25:26;13.35;;;8.50;;
7051;SDS011;3567;52.444;13.556;2023-03-20T05:27:51;9.73;;;8.70;;
7051;SDS011;3567;52.444;13.556;2023-03-20T05:30:16;10.10;;;8.95;;
7051;SDS011;3567;52.444;13.556;2023-03-20T05:32:43;8.48;;;7.68;;
7051;SDS011;3567;52.444;13.556;2023-03-20T05:35:09;8.43;;;7.63;;
7051;SDS011;3567;52.444;13.556;2023-03-20T05:37:35;10.48;;;8.77;;
7051;SDS011;3567;52.444;13.556;2023-03-20T05:40:01;11.38;;;8.75;;
7051;SDS011;3567;52.444;13.556;2023-03-20T05:42:27;12.13;;;9.38;;
7051;SDS011;3567;52.444;13.556;2023-03-20T05:44:52;10.07;;;8.10;;
7051;SDS011;3567;52.444;13.556;2023-03-20T05:47:18;11.57;;;8.73;;
7051;SDS011;3567;52.444;13.556;2023-03-20T05:49:43;14.45;;;9.80;;
7051;SDS011;3567;52.444;13.556;2023-03-20T05:52:08;11.18;;;9.88;;
7051;SDS011;3567;52.444;13.556;2023-03-20T05:54:34;11.55;;;9.45;;
7051;SDS011;3567;52.444;13.556;2023-03-20T05:56:59;11.35;;;9.15;;
7051;SDS011;3567;52.444;13.556;2023-03-20T05:59:24;12.15;;;9.25;;
7051;SDS011;3567;52.444;13.556;2023-03-20T06:01:50;16.02;;;10.38;;
7051;SDS011;3567;52.444;13.556;2023-03-20T06:04:16;10.10;;;8.90;;
7051;SDS011;3567;52.444;13.556;2023-03-20T06:06:41;12.10;;;9.15;;
7051;SDS011;3567;52.444;13.556;2023-03-20T06:09:06;13.00;;;10.25;;
7051;SDS011;3567;52.444;13.556;2023-03-20T06:11:32;12.68;;;9.15;;
7051;SDS011;3567;52.444;13.556;2023-03-20T06:13:57;13.18;;;9.50;;
7051;SDS011;3567;52.444;13.556;2023-03-20T06:16:23;12.57;;;10.82;;
7051;SDS011;3567;52.444;13.556;2023-03-20T06:18:49;11.20;;;10.07;;
7051;SDS011;3567;52.444;13.556;2023-03-20T06:21:14;13.18;;;10.40;;
7051;SDS011;3567;52.444;13.556;2023-03-20T06:23:39;13.07;;;10.43;;
7051;SDS011;3567;52.444;13.556;2023-03-20T06:26:05;13.70;;;11.38;;
7051;SDS011;3567;52.444;13.556;2023-03-20T06:28:31;13.30;;;11.57;;
7051;SDS011;3567;52.444;13.556;2023-03-20T06:30:56;15.70;;;12.23;;
7051;SDS011;3567;52.444;13.556;2023-03-20T06:33:22;16.05;;;12.98;;
7051;SDS011;3567;52.444;13.556;2023-03-20T06:35:47;18.42;;;13.05;;
7051;SDS011;3567;52.444;13.556;2023-03-20T06:38:13;17.88;;;14.30;;
7051;SDS011;3567;52.444;13.556;2023-03-20T06:40:39;18.65;;;14.45;;
7051;SDS011;3567;52.444;13.556;2023-03-20T06:43:05;23.73;;;19.30;;
7051;SDS011;3567;52.444;13.556;2023-03-20T06:45:31;29.38;;;22.40;;
7051;SDS011;3567;52.444;13.556;2023-03-20T06:47:56;33.72;;;26.50;;
7051;SDS011;3567;52.444;13.556;2023-03-20T06:50:21;37.90;;;28.30;;
7051;SDS011;3567;52.444;13.556;2023-03-20T06:52:47;35.60;;;27.13;;
7051;SDS011;3567;52.444;13.556;2023-03-20T06:55:12;37.13;;;29.63;;
7051;SDS011;3567;52.444;13.556;2023-03-20T06:57:38;38.58;;;27.88;;
7051;SDS011;3567;52.444;13.556;2023-03-20T07:00:04;38.65;;;30.17;;
7051;SDS011;3567;52.444;13.556;2023-03-20T07:02:30;41.92;;;32.00;;
7051;SDS011;3567;52.444;13.556;2023-03-20T07:04:56;41.65;;;32.78;;
7051;SDS011;3567;52.444;13.556;2023-03-20T07:07:21;43.00;;;31.05;;
7051;SDS011;3567;52.444;13.556;2023-03-20T07:09:47;42.70;;;31.20;;
7051;SDS011;3567;52.444;13.556;2023-03-20T07:12:13;39.13;;;31.27;;
7051;SDS011;3567;52.444;13.556;2023-03-20T07:14:40;37.60;;;29.90;;
7051;SDS011;3567;52.444;13.556;2023-03-20T07:17:07;33.92;;;27.42;;
7051;SDS011;3567;52.444;13.556;2023-03-20T07:19:34;30.50;;;25.83;;
7051;SDS011;3567;52.444;13.556;2023-03-20T07:22:01;32.95;;;26.98;;
7051;SDS011;3567;52.444;13.556;2023-03-20T07:24:28;31.52;;;25.90;;
7051;SDS011;3567;52.444;13.556;2023-03-20T07:26:54;38.38;;;27.75;;
7051;SDS011;3567;52.444;13.556;2023-03-20T07:29:19;38.50;;;29.40;;
7051;SDS011;3567;52.444;13.556;2023-03-20T07:31:44;48.35;;;34.13;;
7051;SDS011;3567;52.444;13.556;2023-03-20T07:34:10;45.20;;;33.05;;
7051;SDS011;3567;52.444;13.556;2023-03-20T07:36:36;48.15;;;32.40;;
7051;SDS011;3567;52.444;13.556;2023-03-20T07:39:02;42.55;;;31.02;;
7051;SDS011;3567;52.444;13.556;2023-03-20T07:41:27;45.80;;;34.20;;
7051;SDS011;3567;52.444;13.556;2023-03-20T07:43:53;46.20;;;34.90;;
7051;SDS011;3567;52.444;13.556;2023-03-20T07:46:18;54.97;;;40.72;;
7051;SDS011;3567;52.444;13.556;2023-03-20T07:48:43;63.88;;;40.83;;
7051;SDS011;3567;52.444;13.556;2023-03-20T07:51:09;71.20;;;44.20;;
7051;SDS011;3567;52.444;13.556;2023-03-20T07:53:34;80.07;;;49.05;;
7051;SDS011;3567;52.444;13.556;2023-03-20T07:56:00;72.80;;;47.15;;
7051;SDS011;3567;52.444;13.556;2023-03-20T07:58:26;76.57;;;50.22;;
7051;SDS011;3567;52.444;13.556;2023-03-20T08:00:51;78.40;;;47.60;;
7051;SDS011;3567;52.444;13.556;2023-03-20T08:03:17;70.35;;;46.28;;
7051;SDS011;3567;52.444;13.556;2023-03-20T08:05:42;77.28;;;48.05;;
7051;SDS011;3567;52.444;13.556;2023-03-20T08:08:08;73.47;;;45.85;;
7051;SDS011;3567;52.444;13.556;2023-03-20T08:10:33;69.93;;;43.85;;
7051;SDS011;3567;52.444;13.556;2023-03-20T08:12:58;66.65;;;42.58;;
7051;SDS011;3567;52.444;13.556;2023-03-20T08:15:24;73.00;;;41.83;;
7051;SDS011;3567;52.444;13.556;2023-03-20T08:17:49;57.53;;;36.60;;
7051;SDS011;3567;52.444;13.556;2023-03-20T08:20:15;62.80;;;36.70;;
7051;SDS011;3567;52.444;13.556;2023-03-20T08:22:42;58.53;;;35.92;;
7051;SDS011;3567;52.444;13.556;2023-03-20T08:25:08;66.18;;;38.08;;
7051;SDS011;3567;52.444;13.556;2023-03-20T08:27:34;56.45;;;35.55;;
7051;SDS011;3567;52.444;13.556;2023-03-20T08:30:01;52.42;;;34.42;;
7051;SDS011;3567;52.444;13.556;2023-03-20T08:32:27;49.75;;;33.60;;
7051;SDS011;3567;52.444;13.556;2023-03-20T08:34:52;49.53;;;31.35;;
7051;SDS011;3567;52.444;13.556;2023-03-20T08:37:21;54.42;;;29.60;;
7051;SDS011;3567;52.444;13.556;2023-03-20T08:39:46;45.97;;;28.90;;
7051;SDS011;3567;52.444;13.556;2023-03-20T08:42:12;44.65;;;28.85;;
7051;SDS011;3567;52.444;13.556;2023-03-20T08:44:38;47.58;;;31.10;;
7051;SDS011;3567;52.444;13.556;2023-03-20T08:47:03;47.50;;;30.95;;
7051;SDS011;3567;52.444;13.556;2023-03-20T08:49:31;47.40;;;30.50;;
7051;SDS011;3567;52.444;13.556;2023-03-20T08:51:57;47.28;;;31.55;;
7051;SDS011;3567;52.444;13.556;2023-03-20T08:54:24;44.67;;;28.80;;
7051;SDS011;3567;52.444;13.556;2023-03-20T08:56:49;46.00;;;28.95;;
7051;SDS011;3567;52.444;13.556;2023-03-20T08:59:15;41.08;;;24.90;;
7051;SDS011;3567;52.444;13.556;2023-03-20T09:01:40;37.85;;;23.80;;
7051;SDS011;3567;52.444;13.556;2023-03-20T09:04:05;37.50;;;23.48;;
7051;SDS011;3567;52.444;13.556;2023-03-20T09:06:31;37.67;;;22.83;;
7051;SDS011;3567;52.444;13.556;2023-03-20T09:09:00;34.40;;;21.27;;
7051;SDS011;3567;52.444;13.556;2023-03-20T09:11:25;27.05;;;19.52;;
7051;SDS011;3567;52.444;13.556;2023-03-20T09:13:50;30.10;;;19.17;;
7051;SDS011;3567;52.444;13.556;2023-03-20T09:16:16;30.50;;;19.80;;
7051;SDS011;3567;52.444;13.556;2023-03-20T09:18:41;24.88;;;17.10;;
7051;SDS011;3567;52.444;13.556;2023-03-20T09:21:07;23.80;;;17.33;;
7051;SDS011;3567;52.444;13.556;2023-03-20T09:23:32;22.05;;;16.58;;
7051;SDS011;3567;52.444;13.556;2023-03-20T09:25:58;26.25;;;16.10;;
7051;SDS011;3567;52.444;13.556;2023-03-20T09:28:23;27.50;;;17.67;;
7051;SDS011;3567;52.444;13.556;2023-03-20T09:30:53;25.05;;;16.63;;
7051;SDS011;3567;52.444;13.556;2023-03-20T09:33:19;26.08;;;16.90;;
7051;SDS011;3567;52.444;13.556;2023-03-20T09:35:45;22.88;;;15.32;;
7051;SDS011;3567;52.444;13.556;2023-03-20T09:38:10;25.77;;;15.57;;
7051;SDS011;3567;52.444;13.556;2023-03-20T09:51:20;24.95;;;15.02;;
7051;SDS011;3567;52.444;13.556;2023-03-20T09:54:05;20.20;;;14.77;;
7051;SDS011;3567;52.444;13.556;2023-03-20T09:56:39;21.63;;;14.30;;
7051;SDS011;3567;52.444;13.556;2023-03-20T09:59:05;20.83;;;13.52;;
7051;SDS011;3567;52.444;13.556;2023-03-20T10:01:32;19.75;;;12.65;;
7051;SDS011;3567;52.444;13.556;2023-03-20T10:04:08;18.55;;;13.68;;
7051;SDS011;3567;52.444;13.556;2023-03-20T10:06:35;18.70;;;12.65;;
7051;SDS011;3567;52.444;13.556;2023-03-20T10:09:01;17.95;;;12.40;;
7051;SDS011;3567;52.444;13.556;2023-03-20T10:19:44;19.27;;;12.45;;
7051;SDS011;3567;52.444;13.556;2023-03-20T10:22:44;15.60;;;11.50;;
7051;SDS011;3567;52.444;13.556;2023-03-20T10:27:50;18.98;;;11.82;;
7051;SDS011;3567;52.444;13.556;2023-03-20T10:41:57;15.23;;;11.73;;
7051;SDS011;3567;52.444;13.556;2023-03-20T10:44:28;18.67;;;12.70;;
7051;SDS011;3567;52.444;13.556;2023-03-20T10:46:59;20.25;;;13.20;;
7051;SDS011;3567;52.444;13.556;2023-03-20T10:49:38;16.08;;;11.52;;
7051;SDS011;3567;52.444;13.556;2023-03-20T10:52:20;17.20;;;11.15;;
7051;SDS011;3567;52.444;13.556;2023-03-20T10:55:02;17.05;;;10.80;;
7051;SDS011;3567;52.444;13.556;2023-03-20T10:57:32;14.25;;;9.80;;
7051;SDS011;3567;52.444;13.556;2023-03-20T11:00:03;15.77;;;10.23;;
7051;SDS011;3567;52.444;13.556;2023-03-20T11:02:34;13.65;;;9.90;;
7051;SDS011;3567;52.444;13.556;2023-03-20T11:05:19;15.32;;;10.27;;
7051;SDS011;3567;52.444;13.556;2023-03-20T11:07:48;13.70;;;9.35;;
7051;SDS011;3567;52.444;13.556;2023-03-20T11:10:16;13.57;;;9.82;;
7051;SDS011;3567;52.444;13.556;2023-03-20T11:12:43;13.05;;;9.07;;
7051;SDS011;3567;52.444;13.556;2023-03-20T11:17:49;13.98;;;9.25;;
7051;SDS011;3567;52.444;13.556;2023-03-20T11:20:16;11.95;;;8.35;;
7051;SDS011;3567;52.444;13.556;2023-03-20T11:22:41;13.55;;;8.23;;
7051;SDS011;3567;52.444;13.556;2023-03-20T11:25:19;11.52;;;8.35;;
7051;SDS011;3567;52.444;13.556;2023-03-20T11:27:48;12.93;;;7.88;;
7051;SDS011;3567;52.444;13.556;2023-03-20T11:30:13;12.85;;;7.30;;
7051;SDS011;3567;52.444;13.556;2023-03-20T11:32:46;14.07;;;8.43;;
7051;SDS011;3567;52.444;13.556;2023-03-20T11:35:28;11.52;;;8.02;;
7051;SDS011;3567;52.444;13.556;2023-03-20T11:40:55;8.02;;;6.43;;
7051;SDS011;3567;52.444;13.556;2023-03-20T11:43:22;10.23;;;7.82;;
7051;SDS011;3567;52.444;13.556;2023-03-20T11:45:54;10.82;;;7.30;;
7051;SDS011;3567;52.444;13.556;2023-03-20T11:48:25;8.30;;;6.72;;
7051;SDS011;3567;52.444;13.556;2023-03-20T11:51:02;12.30;;;6.95;;
7051;SDS011;3567;52.444;13.556;2023-03-20T11:53:31;7.85;;;6.32;;
7051;SDS011;3567;52.444;13.556;2023-03-20T11:58:27;8.95;;;6.47;;
7051;SDS011;3567;52.444;13.556;2023-03-20T12:00:54;11.32;;;6.70;;
7051;SDS011;3567;52.444;13.556;2023-03-20T12:06:07;9.70;;;7.32;;
7051;SDS011;3567;52.444;13.556;2023-03-20T12:08:38;8.57;;;6.35;;
7051;SDS011;3567;52.444;13.556;2023-03-20T12:14:03;10.48;;;7.55;;
7051;SDS011;3567;52.444;13.556;2023-03-20T12:16:37;10.05;;;7.38;;
7051;SDS011;3567;52.444;13.556;2023-03-20T12:19:05;9.52;;;7.45;;
7051;SDS011;3567;52.444;13.556;2023-03-20T12:21:43;8.93;;;6.78;;
7051;SDS011;3567;52.444;13.556;2023-03-20T12:24:24;10.50;;;7.13;;
7051;SDS011;3567;52.444;13.556;2023-03-20T12:29:45;17.95;;;7.55;;
7051;SDS011;3567;52.444;13.556;2023-03-20T12:32:29;14.57;;;7.40;;
7051;SDS011;3567;52.444;13.556;2023-03-20T12:37:54;10.85;;;7.72;;
7051;SDS011;3567;52.444;13.556;2023-03-20T12:40:19;9.68;;;7.30;;
7051;SDS011;3567;52.444;13.556;2023-03-20T12:43:12;11.02;;;8.07;;
7051;SDS011;3567;52.444;13.556;2023-03-20T12:45:40;9.43;;;6.68;;
7051;SDS011;3567;52.444;13.556;2023-03-20T12:53:40;7.95;;;6.18;;
7051;SDS011;3567;52.444;13.556;2023-03-20T12:56:30;10.68;;;6.78;;
7051;SDS011;3567;52.444;13.556;2023-03-20T12:59:14;9.98;;;7.47;;
7051;SDS011;3567;52.444;13.556;2023-03-20T13:04:44;9.13;;;6.82;;
7051;SDS011;3567;52.444;13.556;2023-03-20T13:07:18;9.07;;;7.30;;
7051;SDS011;3567;52.444;13.556;2023-03-20T13:12:42;10.00;;;7.80;;
7051;SDS011;3567;52.444;13.556;2023-03-20T13:15:22;10.65;;;8.48;;
7051;SDS011;3567;52.444;13.556;2023-03-20T13:18:10;13.98;;;7.68;;
7051;SDS011;3567;52.444;13.556;2023-03-20T13:34:08;13.05;;;8.77;;
7051;SDS011;3567;52.444;13.556;2023-03-20T13:39:41;12.07;;;9.15;;
7051;SDS011;3567;52.444;13.556;2023-03-20T13:42:13;12.88;;;8.55;;
7051;SDS011;3567;52.444;13.556;2023-03-20T13:44:42;12.38;;;9.05;;
7051;SDS011;3567;52.444;13.556;2023-03-20T13:47:20;11.68;;;9.48;;
7051;SDS011;3567;52.444;13.556;2023-03-20T13:52:20;13.68;;;9.68;;
7051;SDS011;3567;52.444;13.556;2023-03-20T14:00:45;13.52;;;10.43;;
7051;SDS011;3567;52.444;13.556;2023-03-20T14:05:48;14.55;;;10.02;;
7051;SDS011;3567;52.444;13.556;2023-03-20T14:13:48;18.70;;;10.85;;
7051;SDS011;3567;52.444;13.556;2023-03-20T14:16:22;17.10;;;10.20;;
7051;SDS011;3567;52.444;13.556;2023-03-20T14:19:05;13.48;;;9.30;;
7051;SDS011;3567;52.444;13.556;2023-03-20T14:21:47;13.50;;;10.98;;
7051;SDS011;3567;52.444;13.556;2023-03-20T14:24:16;12.32;;;9.73;;
7051;SDS011;3567;52.444;13.556;2023-03-20T14:26:45;15.60;;;10.10;;
7051;SDS011;3567;52.444;13.556;2023-03-20T14:31:39;15.63;;;10.07;;
7051;SDS011;3567;52.444;13.556;2023-03-20T14:42:20;15.77;;;9.77;;
7051;SDS011;3567;52.444;13.556;2023-03-20T14:50:50;15.27;;;10.43;;
7051;SDS011;3567;52.444;13.556;2023-03-20T14:53:29;17.95;;;11.18;;
7051;SDS011;3567;52.444;13.556;2023-03-20T15:01:16;19.67;;;11.05;;
7051;SDS011;3567;52.444;13.556;2023-03-20T15:06:23;20.00;;;13.05;;
7051;SDS011;3567;52.444;13.556;2023-03-20T15:09:03;24.00;;;17.65;;
7051;SDS011;3567;52.444;13.556;2023-03-20T15:11:32;18.60;;;13.90;;
7051;SDS011;3567;52.444;13.556;2023-03-20T15:13:58;19.75;;;13.18;;
7051;SDS011;3567;52.444;13.556;2023-03-20T15:16:29;19.02;;;12.77;;
7051;SDS011;3567;52.444;13.556;2023-03-20T15:18:56;20.33;;;14.60;;
7051;SDS011;3567;52.444;13.556;2023-03-20T15:21:27;16.38;;;12.57;;
7051;SDS011;3567;52.444;13.556;2023-03-20T15:23:58;22.10;;;15.60;;
7051;SDS011;3567;52.444;13.556;2023-03-20T15:26:24;27.15;;;21.05;;
7051;SDS011;3567;52.444;13.556;2023-03-20T15:28:55;20.40;;;13.75;;
7051;SDS011;3567;52.444;13.556;2023-03-20T15:31:26;16.20;;;12.27;;
7051;SDS011;3567;52.444;13.556;2023-03-20T15:33:57;19.23;;;14.32;;
7051;SDS011;3567;52.444;13.556;2023-03-20T15:36:26;21.08;;;13.65;;
7051;SDS011;3567;52.444;13.556;2023-03-20T15:38:52;18.55;;;13.48;;
7051;SDS011;3567;52.444;13.556;2023-03-20T15:41:28;18.20;;;13.68;;
7051;SDS011;3567;52.444;13.556;2023-03-20T15:44:40;20.92;;;13.40;;
7051;SDS011;3567;52.444;13.556;2023-03-20T15:49:27;19.85;;;14.65;;
7051;SDS011;3567;52.444;13.556;2023-03-20T15:51:55;18.67;;;13.27;;
7051;SDS011;3567;52.444;13.556;2023-03-20T15:54:24;23.00;;;16.75;;
7051;SDS011;3567;52.444;13.556;2023-03-20T15:56:51;25.25;;;17.02;;
7051;SDS011;3567;52.444;13.556;2023-03-20T15:59:19;33.53;;;25.80;;
7051;SDS011;3567;52.444;13.556;2023-03-20T16:01:48;23.70;;;15.35;;
7051;SDS011;3567;52.444;13.556;2023-03-20T16:04:17;29.10;;;23.08;;
7051;SDS011;3567;52.444;13.556;2023-03-20T16:06:44;26.35;;;19.45;;
7051;SDS011;3567;52.444;13.556;2023-03-20T16:09:16;24.13;;;17.35;;
7051;SDS011;3567;52.444;13.556;2023-03-20T16:11:42;18.50;;;13.73;;
7051;SDS011;3567;52.444;13.556;2023-03-20T16:14:19;26.10;;;17.30;;
7051;SDS011;3567;52.444;13.556;2023-03-20T16:16:48;51.90;;;43.97;;
7051;SDS011;3567;52.444;13.556;2023-03-20T16:19:15;22.52;;;17.58;;
7051;SDS011;3567;52.444;13.556;2023-03-20T16:21:52;24.08;;;16.75;;
7051;SDS011;3567;52.444;13.556;2023-03-20T16:24:21;23.55;;;15.65;;
7051;SDS011;3567;52.444;13.556;2023-03-20T16:26:52;22.58;;;18.45;;
7051;SDS011;3567;52.444;13.556;2023-03-20T16:29:20;21.88;;;13.98;;
7051;SDS011;3567;52.444;13.556;2023-03-20T16:31:48;17.02;;;12.20;;
7051;SDS011;3567;52.444;13.556;2023-03-20T16:34:23;32.67;;;14.02;;
7051;SDS011;3567;52.444;13.556;2023-03-20T16:36:55;22.02;;;13.13;;
7051;SDS011;3567;52.444;13.556;2023-03-20T16:39:24;19.90;;;13.40;;
7051;SDS011;3567;52.444;13.556;2023-03-20T16:41:55;15.55;;;11.80;;
7051;SDS011;3567;52.444;13.556;2023-03-20T16:44:31;17.45;;;12.40;;
7051;SDS011;3567;52.444;13.556;2023-03-20T16:52:09;22.45;;;14.32;;
7051;SDS011;3567;52.444;13.556;2023-03-20T16:54:38;16.77;;;12.85;;
7051;SDS011;3567;52.444;13.556;2023-03-20T16:57:07;17.60;;;13.52;;
7051;SDS011;3567;52.444;13.556;2023-03-20T16:59:36;19.10;;;12.82;;
7051;SDS011;3567;52.444;13.556;2023-03-20T17:02:07;19.85;;;13.52;;
7051;SDS011;3567;52.444;13.556;2023-03-20T17:04:47;17.02;;;11.82;;
7051;SDS011;3567;52.444;13.556;2023-03-20T17:07:14;19.83;;;13.85;;
7051;SDS011;3567;52.444;13.556;2023-03-20T17:09:57;22.00;;;13.65;;
7051;SDS011;3567;52.444;13.556;2023-03-20T17:12:41;17.95;;;12.35;;
7051;SDS011;3567;52.444;13.556;2023-03-20T17:15:09;17.08;;;11.75;;
7051;SDS011;3567;52.444;13.556;2023-03-20T17:17:38;50.33;;;32.13;;
7051;SDS011;3567;52.444;13.556;2023-03-20T17:20:04;32.63;;;22.55;;
7051;SDS011;3567;52.444;13.556;2023-03-20T17:22:30;19.85;;;14.27;;
7051;SDS011;3567;52.444;13.556;2023-03-20T17:24:57;19.70;;;13.52;;
7051;SDS011;3567;52.444;13.556;2023-03-20T17:27:23;19.23;;;13.95;;
7051;SDS011;3567;52.444;13.556;2023-03-20T17:29:54;19.40;;;13.93;;
7051;SDS011;3567;52.444;13.556;2023-03-20T17:32:20;18.85;;;13.68;;
7051;SDS011;3567;52.444;13.556;2023-03-20T17:34:50;15.88;;;12.55;;
7051;SDS011;3567;52.444;13.556;2023-03-20T17:37:23;18.33;;;12.93;;
7051;SDS011;3567;52.444;13.556;2023-03-20T17:39:50;20.00;;;13.50;;
7051;SDS011;3567;52.444;13.556;2023-03-20T17:42:19;21.95;;;14.70;;
7051;SDS011;3567;52.444;13.556;2023-03-20T17:44:46;16.60;;;13.25;;
7051;SDS011;3567;52.444;13.556;2023-03-20T17:47:14;23.15;;;14.35;;